1956 NOT_NAMED (1956021S21164)


IBTrACS version v04r00. Visit IBTrACS website for data access.
Please direct all questions to the IBTrACS Q and A forum

Storm track - Intensity - Wind Radii - Intensity Data - Source Data - All data

Summary Information

Storm ID 1956021S21164
Start Jan 21 00Z
End Jan 26 00Z
ATCF IDs SH141956
Track status Best track data.
Spur track This storm is a spur track associated with the main storm: 1956016S15140

Storm track plot

Map of storm track

Intensity plots

No Intensity information for this storm


Radial wind information

No radial wind information for this storm


Position and Intensity Table

BASIN ISO_TIME_________ NATURE LAT LON
degrees north degrees east
SP 1956-01-21 00:00:00 TS -21.10 164.00
SP 02:00:00 TS -21.27 164.24
SP 03:00:00 TS -21.35 164.36
SP 05:00:00 TS -21.52 164.59
SP 06:00:00 TS -21.61 164.70
SP 09:00:00 TS -21.90 164.98
SP 11:00:00 TS -22.10 165.14
SP 12:00:00 TS -22.20 165.20
SP 15:00:00 TS -22.50 165.34
SP 18:00:00 TS -22.80 165.40
SP 21:00:00 TS -23.10 165.38
SP 23:00:00 TS -23.30 165.33
SP 1956-01-22 00:00:00 TS -23.40 165.30
SP 03:00:00 TS -23.71 165.18
SP 05:00:00 TS -23.90 165.07
SP 06:00:00 TS -23.99 165.01
SP 09:00:00 TS -24.22 164.82
SP 11:00:00 TS -24.35 164.68
SP 12:00:00 TS -24.40 164.60
SP 15:00:00 TS -24.52 164.37
SP 17:00:00 TS -24.58 164.19
SP 18:00:00 TS -24.61 164.10
SP 21:00:00 TS -24.71 163.82
SP 23:00:00 TS -24.77 163.61
SP 1956-01-23 00:00:00 TS -24.80 163.50
SP 03:00:00 TS -24.89 163.16
SP 05:00:00 TS -24.96 162.92
SP 06:00:00 TS -25.00 162.79
SP 09:00:00 TS -25.13 162.39
SP 11:00:00 TS -25.24 162.13
SP 12:00:00 TS -25.30 162.00
SP 15:00:00 TS -25.53 161.62
SP 18:00:00 TS -25.79 161.25
SP 21:00:00 TS -26.04 160.88
SP 23:00:00 TS -26.21 160.67
SP 1956-01-24 00:00:00 TS -26.30 160.60
SP 03:00:00 TS -26.55 160.49
SP 06:00:00 TS -26.82 160.54
SP 09:00:00 TS -27.11 160.73
SP 11:00:00 TS -27.31 160.91
SP 12:00:00 TS -27.40 161.00
SP 15:00:00 TS -27.69 161.25
SP 18:00:00 TS -27.94 161.52
SP 21:00:00 TS -28.17 161.83
SP 23:00:00 TS -28.22 162.02
SP 1956-01-25 00:00:00 TS -28.20 162.10
SP 03:00:00 TS -27.90 162.30
SP 06:00:00 TS -27.40 162.41
SP 09:00:00 TS -26.84 162.43
SP 11:00:00 TS -26.47 162.36
SP 12:00:00 TS -26.30 162.30
SP 15:00:00 TS -25.90 162.06
SP 18:00:00 TS -25.58 161.64
SP 21:00:00 TS -25.28 161.07
SP 23:00:00 TS -25.09 160.63
SP 1956-01-26 00:00:00 TS -25.00 160.40

Source Information

Agency Information
USA bsh141956.txt
TOKYO
CMA
HKO
NEWDELHI
REUNION
BOM
NADI
WELLINGTON
DS824 s_hem.dat:665:14P
TD9636 cons_worldwide_trop_cyclone_18710101-19891231-006:Line=4469
TD9635
NEUMANN
MLC

All available IBTrACS Data

SEASON BASIN SUBBASIN ISO_TIME_________ NATURE LAT LON DIST2LAND LANDFALL IFLAG USA AGENCY USA ATCF_ID USA LAT USA LON USA SSHS DS824 LAT DS824 LON DS824 STAGE TD9636 LAT TD9636 LON TD9636 STAGE STORM SPEED STORM DIR
Year degrees north degrees east km km degrees north degrees east 1 degrees north degrees east degrees north degrees east kts degrees
1956 SP MM 1956-01-21 00:00:00 TS -21.10 164.00 53 45 O________OO___ jtwc_sh SH141956 -21.10 164.00 -1 -21.10 164.00 TC -21.10 164.00 2 8 127
1956 SP MM 02:00:00 TS -21.27 164.24 56 47 P________PP___ SH141956 -21.26 164.24 -1 -21.26 164.24 TC -21.28 164.24 2 8 126
1956 SP MM 03:00:00 TS -21.35 164.36 38 32 P________PP___ SH141956 -21.34 164.36 -1 -21.34 164.36 TC -21.37 164.36 2 8 128
1956 SP MM 05:00:00 TS -21.52 164.59 32 30 P________PP___ SH141956 -21.51 164.59 -1 -21.51 164.59 TC -21.55 164.58 2 8 130
1956 SP MM 06:00:00 TS -21.61 164.70 30 30 O________OP___ jtwc_sh SH141956 -21.60 164.70 -1 -21.60 164.70 TC -21.64 164.69 2 8 136
1956 SP MM 09:00:00 TS -21.90 164.98 45 45 P________PP___ SH141956 -21.89 164.99 -1 -21.89 164.99 TC -21.91 164.98 2 8 140
1956 SP MM 11:00:00 TS -22.10 165.14 59 54 P________PP___ SH141956 -22.10 165.14 -1 -22.10 165.14 TC -22.10 165.13 2 7 146
1956 SP MM 12:00:00 TS -22.20 165.20 63 63 O________OO___ jtwc_sh SH141956 -22.20 165.20 -1 -22.20 165.20 TC -22.20 165.20 2 7 155
1956 SP MM 15:00:00 TS -22.50 165.34 84 78 P________PP___ SH141956 -22.50 165.35 -1 -22.50 165.35 TC -22.50 165.34 2 6 163
1956 SP MM 18:00:00 TS -22.80 165.40 106 106 O________OP___ jtwc_sh SH141956 -22.80 165.40 -1 -22.80 165.40 TC -22.81 165.39 2 6 177
1956 SP MM 21:00:00 TS -23.10 165.38 132 132 P________PP___ SH141956 -23.10 165.39 -1 -23.10 165.39 TC -23.11 165.38 2 6 186
1956 SP MM 23:00:00 TS -23.30 165.33 157 157 P________PP___ SH141956 -23.30 165.34 -1 -23.30 165.34 TC -23.31 165.33 2 6 195
1956 SP MM 1956-01-22 00:00:00 TS -23.40 165.30 166 166 O________OO___ jtwc_sh SH141956 -23.40 165.30 -1 -23.40 165.30 TC -23.40 165.30 2 6 199
1956 SP MM 03:00:00 TS -23.71 165.18 198 198 P________PP___ SH141956 -23.71 165.17 -1 -23.71 165.17 TC -23.69 165.20 2 7 203
1956 SP MM 05:00:00 TS -23.90 165.07 222 222 P________PP___ SH141956 -23.91 165.06 -1 -23.91 165.06 TC -23.87 165.10 2 6 208
1956 SP MM 06:00:00 TS -23.99 165.01 237 237 O________OP___ jtwc_sh SH141956 -24.00 165.00 -1 -24.00 165.00 TC -23.96 165.04 2 6 216
1956 SP MM 09:00:00 TS -24.22 164.82 267 267 P________PP___ SH141956 -24.23 164.81 -1 -24.23 164.81 TC -24.20 164.84 2 6 221
1956 SP MM 11:00:00 TS -24.35 164.68 282 291 P________PP___ SH141956 -24.35 164.67 -1 -24.35 164.67 TC -24.34 164.68 2 5 229
1956 SP MM 12:00:00 TS -24.40 164.60 298 298 O________OO___ jtwc_sh SH141956 -24.40 164.60 -1 -24.40 164.60 TC -24.40 164.60 2 5 238
1956 SP MM 15:00:00 TS -24.52 164.37 319 319 P________PP___ SH141956 -24.51 164.36 -1 -24.51 164.36 TC -24.54 164.37 2 5 244
1956 SP MM 17:00:00 TS -24.58 164.19 340 340 P________PP___ SH141956 -24.57 164.19 -1 -24.57 164.19 TC -24.61 164.20 2 5 250
1956 SP MM 18:00:00 TS -24.61 164.10 346 346 O________OP___ jtwc_sh SH141956 -24.60 164.10 -1 -24.60 164.10 TC -24.64 164.11 2 5 250
1956 SP MM 21:00:00 TS -24.71 163.82 373 373 P________PP___ SH141956 -24.70 163.81 -1 -24.70 163.81 TC -24.72 163.82 2 6 251
1956 SP MM 23:00:00 TS -24.77 163.61 394 394 P________PP___ SH141956 -24.77 163.61 -1 -24.77 163.61 TC -24.77 163.61 2 6 252
1956 SP MM 1956-01-23 00:00:00 TS -24.80 163.50 400 400 O________OO___ jtwc_sh SH141956 -24.80 163.50 -1 -24.80 163.50 TC -24.80 163.50 2 6 253
1956 SP MM 03:00:00 TS -24.89 163.16 426 426 P________PP___ SH141956 -24.89 163.16 -1 -24.89 163.16 TC -24.90 163.15 2 7 253
1956 SP MM 05:00:00 TS -24.96 162.92 451 451 P________PP___ SH141956 -24.96 162.92 -1 -24.96 162.92 TC -24.97 162.90 2 7 252
1956 SP MM 06:00:00 TS -25.00 162.79 455 455 O________OP___ jtwc_sh SH141956 -25.00 162.80 -1 -25.00 162.80 TC -25.01 162.77 2 8 251
1956 SP MM 09:00:00 TS -25.13 162.39 485 485 P________PP___ SH141956 -25.13 162.40 -1 -25.13 162.40 TC -25.14 162.38 2 8 248
1956 SP MM 11:00:00 TS -25.24 162.13 511 511 P________PP___ SH141956 -25.24 162.13 -1 -25.24 162.13 TC -25.24 162.13 2 8 244
1956 SP MM 12:00:00 TS -25.30 162.00 526 526 O________OO___ jtwc_sh SH141956 -25.30 162.00 -1 -25.30 162.00 TC -25.30 162.00 2 8 238
1956 SP MM 15:00:00 TS -25.53 161.62 568 568 P________PP___ SH141956 -25.53 161.64 -1 -25.53 161.64 TC -25.51 161.57 2 8 234
1956 SP MM 18:00:00 TS -25.79 161.25 613 613 O________OP___ jtwc_sh SH141956 -25.80 161.30 -1 -25.80 161.30 TC -25.76 161.16 2 8 232
1956 SP MM 21:00:00 TS -26.04 160.88 655 655 P________PP___ SH141956 -26.05 160.91 -1 -26.05 160.91 TC -26.02 160.82 2 8 231
1956 SP MM 23:00:00 TS -26.21 160.67 685 685 P________PP___ SH141956 -26.22 160.68 -1 -26.22 160.68 TC -26.21 160.66 2 7 224
1956 SP MM 1956-01-24 00:00:00 TS -26.30 160.60 700 700 O________OO___ jtwc_sh SH141956 -26.30 160.60 -1 -26.30 160.60 TC -26.30 160.60 2 6 206
1956 SP MM 03:00:00 TS -26.55 160.49 703 697 P________PP___ SH141956 -26.54 160.46 -1 -26.54 160.46 TC -26.58 160.54 2 5 187
1956 SP MM 06:00:00 TS -26.82 160.54 697 697 O________OP___ jtwc_sh SH141956 -26.80 160.50 -1 -26.80 160.50 TC -26.86 160.61 2 6 159
1956 SP MM 09:00:00 TS -27.11 160.73 709 709 P________PP___ SH141956 -27.10 160.70 -1 -27.10 160.70 TC -27.14 160.78 2 7 146
1956 SP MM 11:00:00 TS -27.31 160.91 724 724 P________PP___ SH141956 -27.30 160.90 -1 -27.30 160.90 TC -27.32 160.92 2 8 140
1956 SP MM 12:00:00 TS -27.40 161.00 732 732 O________OO___ jtwc_sh SH141956 -27.40 161.00 -1 -27.40 161.00 TC -27.40 161.00 2 7 142
1956 SP MM 15:00:00 TS -27.69 161.25 747 747 P________PP___ SH141956 -27.67 161.24 -1 -27.67 161.24 TC -27.73 161.26 2 7 140
1956 SP MM 18:00:00 TS -27.94 161.52 774 774 O________OP___ jtwc_sh SH141956 -27.90 161.50 -1 -27.90 161.50 TC -28.03 161.56 2 7 133
1956 SP MM 21:00:00 TS -28.17 161.83 802 793 P________PP___ SH141956 -28.15 161.81 -1 -28.15 161.81 TC -28.21 161.86 2 6 122
1956 SP MM 23:00:00 TS -28.22 162.02 793 788 P________PP___ SH141956 -28.22 162.01 -1 -28.22 162.01 TC -28.23 162.03 2 5 98
1956 SP MM 1956-01-25 00:00:00 TS -28.20 162.10 788 749 O________OO___ jtwc_sh SH141956 -28.20 162.10 -1 -28.20 162.10 TC -28.20 162.10 2 6 38
1956 SP MM 03:00:00 TS -27.90 162.30 749 698 P________PP___ SH141956 -27.90 162.30 -1 -27.90 162.30 TC -27.89 162.30 2 8 19
1956 SP MM 06:00:00 TS -27.40 162.41 698 653 O________OP___ jtwc_sh SH141956 -27.40 162.40 -1 -27.40 162.40 TC -27.41 162.43 2 11 6
1956 SP MM 09:00:00 TS -26.84 162.43 644 618 P________PP___ SH141956 -26.84 162.42 -1 -26.84 162.42 TC -26.84 162.44 2 11 357
1956 SP MM 11:00:00 TS -26.47 162.36 618 606 P________PP___ SH141956 -26.47 162.36 -1 -26.47 162.36 TC -26.47 162.37 2 11 349
1956 SP MM 12:00:00 TS -26.30 162.30 606 578 O________OO___ jtwc_sh SH141956 -26.30 162.30 -1 -26.30 162.30 TC -26.30 162.30 2 10 335
1956 SP MM 15:00:00 TS -25.90 162.06 578 565 P________PP___ SH141956 -25.91 162.09 -1 -25.91 162.09 TC -25.87 161.99 2 9 321
1956 SP MM 18:00:00 TS -25.58 161.64 577 568 O________OP___ jtwc_sh SH141956 -25.60 161.70 -1 -25.60 161.70 TC -25.53 161.53 2 11 305
1956 SP MM 21:00:00 TS -25.28 161.07 583 582 P________PP___ SH141956 -25.30 161.11 -1 -25.30 161.11 TC -25.25 160.99 2 12 298
1956 SP MM 23:00:00 TS -25.09 160.63 603 603 P________PP___ SH141956 -25.10 160.64 -1 -25.10 160.64 TC -25.08 160.60 2 13 295
1956 SP MM 1956-01-26 00:00:00 TS -25.00 160.40 610 O________OO___ jtwc_sh SH141956 -25.00 160.40 -1 -25.00 160.40 TC -25.00 160.40 2 14 294